sensor_id;sensor_type;location;lat;lon;timestamp;P1;durP1;ratioP1;P2;durP2;ratioP2
62990;SDS011;49084;48.204;16.202;2022-12-05T00:01:33;24.48;;;13.38;;
62990;SDS011;49084;48.204;16.202;2022-12-05T00:04:05;27.55;;;14.68;;
62990;SDS011;49084;48.204;16.202;2022-12-05T00:06:33;27.90;;;14.43;;
62990;SDS011;49084;48.204;16.202;2022-12-05T00:09:01;28.08;;;15.70;;
62990;SDS011;49084;48.204;16.202;2022-12-05T00:11:29;27.90;;;15.82;;
62990;SDS011;49084;48.204;16.202;2022-12-05T00:13:56;30.75;;;16.15;;
62990;SDS011;49084;48.204;16.202;2022-12-05T00:16:24;34.10;;;16.67;;
62990;SDS011;49084;48.204;16.202;2022-12-05T00:18:51;31.30;;;15.68;;
62990;SDS011;49084;48.204;16.202;2022-12-05T00:21:18;28.13;;;15.00;;
62990;SDS011;49084;48.204;16.202;2022-12-05T00:23:45;28.70;;;15.75;;
62990;SDS011;49084;48.204;16.202;2022-12-05T00:26:11;30.92;;;16.10;;
62990;SDS011;49084;48.204;16.202;2022-12-05T00:28:38;30.23;;;14.98;;
62990;SDS011;49084;48.204;16.202;2022-12-05T00:31:08;29.83;;;15.57;;
62990;SDS011;49084;48.204;16.202;2022-12-05T00:33:36;27.38;;;15.25;;
62990;SDS011;49084;48.204;16.202;2022-12-05T00:36:03;28.23;;;15.10;;
62990;SDS011;49084;48.204;16.202;2022-12-05T00:38:34;33.03;;;15.82;;
62990;SDS011;49084;48.204;16.202;2022-12-05T00:41:03;29.98;;;15.15;;
62990;SDS011;49084;48.204;16.202;2022-12-05T00:43:34;32.55;;;15.93;;
62990;SDS011;49084;48.204;16.202;2022-12-05T00:46:06;28.25;;;14.48;;
62990;SDS011;49084;48.204;16.202;2022-12-05T00:48:34;27.30;;;15.05;;
62990;SDS011;49084;48.204;16.202;2022-12-05T00:51:08;31.58;;;16.13;;
62990;SDS011;49084;48.204;16.202;2022-12-05T00:53:36;38.17;;;16.95;;
62990;SDS011;49084;48.204;16.202;2022-12-05T00:56:03;32.90;;;15.95;;
62990;SDS011;49084;48.204;16.202;2022-12-05T00:58:31;30.67;;;16.35;;
62990;SDS011;49084;48.204;16.202;2022-12-05T01:00:57;32.13;;;16.13;;
62990;SDS011;49084;48.204;16.202;2022-12-05T01:03:29;32.97;;;16.25;;
62990;SDS011;49084;48.204;16.202;2022-12-05T01:05:54;33.25;;;15.93;;
62990;SDS011;49084;48.204;16.202;2022-12-05T01:08:22;31.52;;;15.50;;
62990;SDS011;49084;48.204;16.202;2022-12-05T01:10:55;32.67;;;15.68;;
62990;SDS011;49084;48.204;16.202;2022-12-05T01:13:22;32.45;;;16.77;;
62990;SDS011;49084;48.204;16.202;2022-12-05T01:15:49;34.88;;;15.75;;
62990;SDS011;49084;48.204;16.202;2022-12-05T01:18:14;34.13;;;15.90;;
62990;SDS011;49084;48.204;16.202;2022-12-05T01:20:41;26.35;;;15.02;;
62990;SDS011;49084;48.204;16.202;2022-12-05T01:23:07;36.35;;;17.00;;
62990;SDS011;49084;48.204;16.202;2022-12-05T01:25:32;30.35;;;16.13;;
62990;SDS011;49084;48.204;16.202;2022-12-05T01:27:58;28.63;;;14.98;;
62990;SDS011;49084;48.204;16.202;2022-12-05T01:30:24;28.10;;;15.35;;
62990;SDS011;49084;48.204;16.202;2022-12-05T01:32:50;30.98;;;15.27;;
62990;SDS011;49084;48.204;16.202;2022-12-05T01:35:15;30.05;;;15.00;;
62990;SDS011;49084;48.204;16.202;2022-12-05T01:37:41;34.00;;;15.05;;
62990;SDS011;49084;48.204;16.202;2022-12-05T01:40:07;29.52;;;14.73;;
62990;SDS011;49084;48.204;16.202;2022-12-05T01:42:33;27.17;;;14.30;;
62990;SDS011;49084;48.204;16.202;2022-12-05T01:45:01;23.63;;;13.80;;
62990;SDS011;49084;48.204;16.202;2022-12-05T01:47:36;25.77;;;13.98;;
62990;SDS011;49084;48.204;16.202;2022-12-05T01:50:02;25.90;;;13.68;;
62990;SDS011;49084;48.204;16.202;2022-12-05T01:52:28;31.60;;;14.25;;
62990;SDS011;49084;48.204;16.202;2022-12-05T01:54:58;25.27;;;12.95;;
62990;SDS011;49084;48.204;16.202;2022-12-05T01:57:28;22.38;;;13.05;;
62990;SDS011;49084;48.204;16.202;2022-12-05T01:59:57;30.42;;;14.80;;
62990;SDS011;49084;48.204;16.202;2022-12-05T02:02:26;24.23;;;13.85;;
62990;SDS011;49084;48.204;16.202;2022-12-05T02:07:48;24.15;;;13.32;;
62990;SDS011;49084;48.204;16.202;2022-12-05T02:10:14;25.90;;;13.25;;
62990;SDS011;49084;48.204;16.202;2022-12-05T02:12:40;25.73;;;12.80;;
62990;SDS011;49084;48.204;16.202;2022-12-05T02:26:44;24.48;;;13.48;;
62990;SDS011;49084;48.204;16.202;2022-12-05T02:37:43;23.02;;;11.75;;
62990;SDS011;49084;48.204;16.202;2022-12-05T02:40:30;21.83;;;11.55;;
62990;SDS011;49084;48.204;16.202;2022-12-05T02:43:07;22.48;;;11.77;;
62990;SDS011;49084;48.204;16.202;2022-12-05T02:45:42;22.42;;;11.40;;
62990;SDS011;49084;48.204;16.202;2022-12-05T02:48:11;22.42;;;11.00;;
62990;SDS011;49084;48.204;16.202;2022-12-05T02:50:39;18.13;;;10.95;;
62990;SDS011;49084;48.204;16.202;2022-12-05T02:53:08;17.17;;;10.85;;
62990;SDS011;49084;48.204;16.202;2022-12-05T02:55:36;20.75;;;11.60;;
62990;SDS011;49084;48.204;16.202;2022-12-05T02:58:04;19.88;;;10.52;;
62990;SDS011;49084;48.204;16.202;2022-12-05T03:00:37;17.92;;;9.70;;
62990;SDS011;49084;48.204;16.202;2022-12-05T03:03:11;18.73;;;10.55;;
62990;SDS011;49084;48.204;16.202;2022-12-05T03:05:41;17.63;;;9.45;;
62990;SDS011;49084;48.204;16.202;2022-12-05T03:08:25;19.05;;;10.27;;
62990;SDS011;49084;48.204;16.202;2022-12-05T03:11:04;17.90;;;10.00;;
62990;SDS011;49084;48.204;16.202;2022-12-05T03:13:32;16.00;;;9.43;;
62990;SDS011;49084;48.204;16.202;2022-12-05T03:16:05;18.27;;;9.57;;
62990;SDS011;49084;48.204;16.202;2022-12-05T03:18:39;17.67;;;9.80;;
62990;SDS011;49084;48.204;16.202;2022-12-05T03:21:30;16.35;;;9.50;;
62990;SDS011;49084;48.204;16.202;2022-12-05T03:24:07;18.88;;;9.63;;
62990;SDS011;49084;48.204;16.202;2022-12-05T03:29:27;18.50;;;10.00;;
62990;SDS011;49084;48.204;16.202;2022-12-05T03:46:14;16.42;;;9.80;;
62990;SDS011;49084;48.204;16.202;2022-12-05T03:51:41;17.15;;;9.80;;
62990;SDS011;49084;48.204;16.202;2022-12-05T03:54:17;16.13;;;8.90;;
62990;SDS011;49084;48.204;16.202;2022-12-05T03:56:53;17.63;;;9.75;;
62990;SDS011;49084;48.204;16.202;2022-12-05T03:59:27;15.85;;;9.50;;
62990;SDS011;49084;48.204;16.202;2022-12-05T04:01:58;15.32;;;9.30;;
62990;SDS011;49084;48.204;16.202;2022-12-05T04:04:33;16.95;;;9.55;;
62990;SDS011;49084;48.204;16.202;2022-12-05T04:07:08;14.98;;;9.43;;
62990;SDS011;49084;48.204;16.202;2022-12-05T04:09:45;15.85;;;9.45;;
62990;SDS011;49084;48.204;16.202;2022-12-05T04:12:21;16.20;;;9.93;;
62990;SDS011;49084;48.204;16.202;2022-12-05T04:14:49;13.90;;;8.75;;
62990;SDS011;49084;48.204;16.202;2022-12-05T04:23:17;18.33;;;9.48;;
62990;SDS011;49084;48.204;16.202;2022-12-05T04:26:28;18.20;;;10.00;;
62990;SDS011;49084;48.204;16.202;2022-12-05T04:28:55;18.55;;;10.38;;
62990;SDS011;49084;48.204;16.202;2022-12-05T04:31:31;16.85;;;10.20;;
62990;SDS011;49084;48.204;16.202;2022-12-05T04:34:03;17.98;;;9.32;;
62990;SDS011;49084;48.204;16.202;2022-12-05T04:41:37;16.40;;;9.55;;
62990;SDS011;49084;48.204;16.202;2022-12-05T04:44:07;19.80;;;10.55;;
62990;SDS011;49084;48.204;16.202;2022-12-05T04:46:37;18.65;;;10.65;;
62990;SDS011;49084;48.204;16.202;2022-12-05T04:49:06;18.85;;;10.65;;
62990;SDS011;49084;48.204;16.202;2022-12-05T04:51:35;17.05;;;9.70;;
62990;SDS011;49084;48.204;16.202;2022-12-05T04:56:55;20.52;;;10.63;;
62990;SDS011;49084;48.204;16.202;2022-12-05T04:59:44;17.30;;;9.77;;
62990;SDS011;49084;48.204;16.202;2022-12-05T05:02:11;17.90;;;10.38;;
62990;SDS011;49084;48.204;16.202;2022-12-05T05:04:46;19.00;;;10.48;;
62990;SDS011;49084;48.204;16.202;2022-12-05T05:07:15;19.52;;;10.52;;
62990;SDS011;49084;48.204;16.202;2022-12-05T05:09:41;20.40;;;10.93;;
62990;SDS011;49084;48.204;16.202;2022-12-05T05:12:08;20.60;;;11.13;;
62990;SDS011;49084;48.204;16.202;2022-12-05T05:14:34;20.15;;;10.88;;
62990;SDS011;49084;48.204;16.202;2022-12-05T05:17:00;23.27;;;11.88;;
62990;SDS011;49084;48.204;16.202;2022-12-05T05:19:26;20.38;;;10.50;;
62990;SDS011;49084;48.204;16.202;2022-12-05T05:21:52;19.33;;;11.27;;
62990;SDS011;49084;48.204;16.202;2022-12-05T05:24:18;20.88;;;11.63;;
62990;SDS011;49084;48.204;16.202;2022-12-05T05:26:45;19.52;;;11.50;;
62990;SDS011;49084;48.204;16.202;2022-12-05T05:29:12;19.83;;;11.05;;
62990;SDS011;49084;48.204;16.202;2022-12-05T05:31:39;20.75;;;11.25;;
62990;SDS011;49084;48.204;16.202;2022-12-05T05:34:06;26.13;;;12.52;;
62990;SDS011;49084;48.204;16.202;2022-12-05T05:36:32;25.27;;;11.30;;
62990;SDS011;49084;48.204;16.202;2022-12-05T05:38:59;22.38;;;11.77;;
62990;SDS011;49084;48.204;16.202;2022-12-05T05:41:26;21.20;;;11.32;;
62990;SDS011;49084;48.204;16.202;2022-12-05T05:43:54;19.67;;;11.13;;
62990;SDS011;49084;48.204;16.202;2022-12-05T05:46:22;22.38;;;11.75;;
62990;SDS011;49084;48.204;16.202;2022-12-05T05:48:52;21.30;;;12.18;;
62990;SDS011;49084;48.204;16.202;2022-12-05T05:51:19;24.05;;;12.38;;
62990;SDS011;49084;48.204;16.202;2022-12-05T05:53:46;24.55;;;11.13;;
62990;SDS011;49084;48.204;16.202;2022-12-05T05:56:13;22.33;;;12.05;;
62990;SDS011;49084;48.204;16.202;2022-12-05T05:58:41;24.80;;;12.70;;
62990;SDS011;49084;48.204;16.202;2022-12-05T06:01:08;25.02;;;12.68;;
62990;SDS011;49084;48.204;16.202;2022-12-05T06:03:36;22.08;;;11.75;;
62990;SDS011;49084;48.204;16.202;2022-12-05T06:06:03;22.10;;;12.68;;
62990;SDS011;49084;48.204;16.202;2022-12-05T06:08:31;24.17;;;12.55;;
62990;SDS011;49084;48.204;16.202;2022-12-05T06:11:04;21.23;;;12.18;;
62990;SDS011;49084;48.204;16.202;2022-12-05T06:13:31;23.77;;;12.10;;
62990;SDS011;49084;48.204;16.202;2022-12-05T06:15:57;22.98;;;12.43;;
62990;SDS011;49084;48.204;16.202;2022-12-05T06:18:25;26.75;;;12.50;;
62990;SDS011;49084;48.204;16.202;2022-12-05T06:20:54;22.75;;;12.35;;
62990;SDS011;49084;48.204;16.202;2022-12-05T06:23:23;22.15;;;11.80;;
62990;SDS011;49084;48.204;16.202;2022-12-05T06:25:54;24.55;;;13.32;;
62990;SDS011;49084;48.204;16.202;2022-12-05T06:28:21;23.38;;;12.30;;
62990;SDS011;49084;48.204;16.202;2022-12-05T06:30:49;24.45;;;13.13;;
62990;SDS011;49084;48.204;16.202;2022-12-05T06:33:15;25.20;;;12.75;;
62990;SDS011;49084;48.204;16.202;2022-12-05T06:35:41;22.77;;;12.40;;
62990;SDS011;49084;48.204;16.202;2022-12-05T06:38:07;22.75;;;12.73;;
62990;SDS011;49084;48.204;16.202;2022-12-05T06:40:33;20.65;;;12.30;;
62990;SDS011;49084;48.204;16.202;2022-12-05T06:42:59;23.17;;;12.90;;
62990;SDS011;49084;48.204;16.202;2022-12-05T06:45:24;20.00;;;12.00;;
62990;SDS011;49084;48.204;16.202;2022-12-05T06:47:51;26.92;;;14.57;;
62990;SDS011;49084;48.204;16.202;2022-12-05T06:50:17;25.08;;;12.65;;
62990;SDS011;49084;48.204;16.202;2022-12-05T06:52:43;22.20;;;12.57;;
62990;SDS011;49084;48.204;16.202;2022-12-05T06:55:09;20.05;;;12.23;;
62990;SDS011;49084;48.204;16.202;2022-12-05T06:57:34;24.90;;;13.38;;
62990;SDS011;49084;48.204;16.202;2022-12-05T07:00:00;23.02;;;12.30;;
62990;SDS011;49084;48.204;16.202;2022-12-05T07:02:45;22.08;;;12.05;;
62990;SDS011;49084;48.204;16.202;2022-12-05T07:05:11;22.98;;;12.70;;
62990;SDS011;49084;48.204;16.202;2022-12-05T07:07:37;23.38;;;12.20;;
62990;SDS011;49084;48.204;16.202;2022-12-05T07:10:03;26.15;;;12.60;;
62990;SDS011;49084;48.204;16.202;2022-12-05T07:12:30;22.73;;;11.98;;
62990;SDS011;49084;48.204;16.202;2022-12-05T07:14:57;24.40;;;12.88;;
62990;SDS011;49084;48.204;16.202;2022-12-05T07:17:23;25.40;;;12.88;;
62990;SDS011;49084;48.204;16.202;2022-12-05T07:19:49;22.85;;;12.35;;
62990;SDS011;49084;48.204;16.202;2022-12-05T07:22:17;28.55;;;13.82;;
62990;SDS011;49084;48.204;16.202;2022-12-05T07:24:44;27.08;;;13.35;;
62990;SDS011;49084;48.204;16.202;2022-12-05T07:27:11;28.92;;;13.85;;
62990;SDS011;49084;48.204;16.202;2022-12-05T07:29:38;30.10;;;13.45;;
62990;SDS011;49084;48.204;16.202;2022-12-05T07:32:04;25.58;;;13.25;;
62990;SDS011;49084;48.204;16.202;2022-12-05T07:34:29;28.83;;;14.07;;
62990;SDS011;49084;48.204;16.202;2022-12-05T07:36:55;30.30;;;14.25;;
62990;SDS011;49084;48.204;16.202;2022-12-05T07:39:21;29.95;;;15.65;;
62990;SDS011;49084;48.204;16.202;2022-12-05T07:41:47;29.45;;;13.98;;
62990;SDS011;49084;48.204;16.202;2022-12-05T07:44:12;30.08;;;14.90;;
62990;SDS011;49084;48.204;16.202;2022-12-05T07:46:38;31.48;;;14.63;;
62990;SDS011;49084;48.204;16.202;2022-12-05T07:49:04;33.90;;;14.55;;
62990;SDS011;49084;48.204;16.202;2022-12-05T07:51:31;28.20;;;14.73;;
62990;SDS011;49084;48.204;16.202;2022-12-05T07:53:58;31.02;;;14.23;;
62990;SDS011;49084;48.204;16.202;2022-12-05T07:56:25;37.08;;;15.40;;
62990;SDS011;49084;48.204;16.202;2022-12-05T07:58:51;30.17;;;14.38;;
62990;SDS011;49084;48.204;16.202;2022-12-05T08:01:18;33.17;;;15.27;;
62990;SDS011;49084;48.204;16.202;2022-12-05T08:03:51;34.65;;;15.15;;
62990;SDS011;49084;48.204;16.202;2022-12-05T08:06:19;35.45;;;15.90;;
62990;SDS011;49084;48.204;16.202;2022-12-05T08:08:46;30.57;;;14.80;;
62990;SDS011;49084;48.204;16.202;2022-12-05T08:13:45;31.13;;;13.70;;
62990;SDS011;49084;48.204;16.202;2022-12-05T08:16:13;29.30;;;14.23;;
62990;SDS011;49084;48.204;16.202;2022-12-05T08:18:43;31.02;;;13.98;;
62990;SDS011;49084;48.204;16.202;2022-12-05T08:21:13;30.80;;;13.50;;
62990;SDS011;49084;48.204;16.202;2022-12-05T08:23:41;30.05;;;13.32;;
62990;SDS011;49084;48.204;16.202;2022-12-05T08:28:35;33.05;;;13.50;;
62990;SDS011;49084;48.204;16.202;2022-12-05T08:31:05;33.53;;;14.80;;
62990;SDS011;49084;48.204;16.202;2022-12-05T08:33:35;31.40;;;13.68;;
62990;SDS011;49084;48.204;16.202;2022-12-05T08:36:02;31.33;;;13.65;;
62990;SDS011;49084;48.204;16.202;2022-12-05T08:38:29;28.48;;;12.73;;
62990;SDS011;49084;48.204;16.202;2022-12-05T08:40:55;33.67;;;13.48;;
62990;SDS011;49084;48.204;16.202;2022-12-05T08:43:20;32.35;;;15.18;;
62990;SDS011;49084;48.204;16.202;2022-12-05T08:45:50;37.78;;;14.40;;
62990;SDS011;49084;48.204;16.202;2022-12-05T08:48:16;28.70;;;14.13;;
62990;SDS011;49084;48.204;16.202;2022-12-05T08:50:42;37.35;;;15.85;;
62990;SDS011;49084;48.204;16.202;2022-12-05T08:53:08;38.80;;;16.50;;
62990;SDS011;49084;48.204;16.202;2022-12-05T08:55:34;39.85;;;15.80;;
62990;SDS011;49084;48.204;16.202;2022-12-05T08:58:00;37.22;;;14.93;;
62990;SDS011;49084;48.204;16.202;2022-12-05T09:00:26;33.20;;;14.30;;
62990;SDS011;49084;48.204;16.202;2022-12-05T09:02:52;40.17;;;15.80;;
62990;SDS011;49084;48.204;16.202;2022-12-05T09:05:17;37.72;;;15.05;;
62990;SDS011;49084;48.204;16.202;2022-12-05T09:07:43;35.58;;;15.02;;
62990;SDS011;49084;48.204;16.202;2022-12-05T09:10:09;39.10;;;15.18;;
62990;SDS011;49084;48.204;16.202;2022-12-05T09:12:35;36.25;;;14.73;;
62990;SDS011;49084;48.204;16.202;2022-12-05T09:15:02;34.58;;;15.73;;
62990;SDS011;49084;48.204;16.202;2022-12-05T09:17:29;37.38;;;15.57;;
62990;SDS011;49084;48.204;16.202;2022-12-05T09:19:55;35.45;;;15.65;;
62990;SDS011;49084;48.204;16.202;2022-12-05T09:22:21;40.40;;;14.45;;
62990;SDS011;49084;48.204;16.202;2022-12-05T09:24:47;32.88;;;14.82;;
62990;SDS011;49084;48.204;16.202;2022-12-05T09:27:13;34.33;;;14.82;;
62990;SDS011;49084;48.204;16.202;2022-12-05T09:29:38;31.13;;;14.45;;
62990;SDS011;49084;48.204;16.202;2022-12-05T09:32:04;35.35;;;14.57;;
62990;SDS011;49084;48.204;16.202;2022-12-05T09:34:30;35.22;;;15.00;;
62990;SDS011;49084;48.204;16.202;2022-12-05T09:36:56;32.40;;;14.70;;
62990;SDS011;49084;48.204;16.202;2022-12-05T09:39:22;33.85;;;15.20;;
62990;SDS011;49084;48.204;16.202;2022-12-05T09:45:02;29.50;;;13.57;;
62990;SDS011;49084;48.204;16.202;2022-12-05T10:01:17;36.97;;;15.00;;
62990;SDS011;49084;48.204;16.202;2022-12-05T10:15:40;34.33;;;14.10;;
62990;SDS011;49084;48.204;16.202;2022-12-05T10:20:57;35.22;;;14.50;;
62990;SDS011;49084;48.204;16.202;2022-12-05T10:26:22;32.97;;;15.60;;
62990;SDS011;49084;48.204;16.202;2022-12-05T10:31:35;35.03;;;14.98;;
62990;SDS011;49084;48.204;16.202;2022-12-05T10:34:05;29.55;;;14.43;;
62990;SDS011;49084;48.204;16.202;2022-12-05T10:36:39;32.85;;;13.70;;
62990;SDS011;49084;48.204;16.202;2022-12-05T10:39:10;32.50;;;14.77;;
62990;SDS011;49084;48.204;16.202;2022-12-05T10:41:36;35.95;;;16.15;;
62990;SDS011;49084;48.204;16.202;2022-12-05T10:44:02;34.25;;;14.85;;
62990;SDS011;49084;48.204;16.202;2022-12-05T10:46:29;40.30;;;15.40;;
62990;SDS011;49084;48.204;16.202;2022-12-05T10:48:55;32.33;;;15.40;;
62990;SDS011;49084;48.204;16.202;2022-12-05T10:51:23;35.83;;;15.27;;
62990;SDS011;49084;48.204;16.202;2022-12-05T10:53:51;33.58;;;13.68;;
62990;SDS011;49084;48.204;16.202;2022-12-05T10:59:07;36.03;;;16.10;;
62990;SDS011;49084;48.204;16.202;2022-12-05T11:01:35;39.88;;;17.38;;
62990;SDS011;49084;48.204;16.202;2022-12-05T11:04:16;32.45;;;13.93;;
62990;SDS011;49084;48.204;16.202;2022-12-05T11:06:49;31.23;;;14.63;;
62990;SDS011;49084;48.204;16.202;2022-12-05T11:09:21;36.65;;;15.23;;
62990;SDS011;49084;48.204;16.202;2022-12-05T11:12:23;35.70;;;14.55;;
62990;SDS011;49084;48.204;16.202;2022-12-05T11:14:59;31.75;;;13.55;;
62990;SDS011;49084;48.204;16.202;2022-12-05T11:17:32;33.15;;;14.60;;
62990;SDS011;49084;48.204;16.202;2022-12-05T11:22:40;34.10;;;16.08;;
62990;SDS011;49084;48.204;16.202;2022-12-05T11:27:54;32.58;;;15.38;;
62990;SDS011;49084;48.204;16.202;2022-12-05T11:30:22;31.00;;;15.07;;
62990;SDS011;49084;48.204;16.202;2022-12-05T11:32:57;32.38;;;14.95;;
62990;SDS011;49084;48.204;16.202;2022-12-05T11:35:55;32.63;;;14.80;;
62990;SDS011;49084;48.204;16.202;2022-12-05T11:38:34;38.83;;;17.40;;
62990;SDS011;49084;48.204;16.202;2022-12-05T11:41:13;37.45;;;16.25;;
62990;SDS011;49084;48.204;16.202;2022-12-05T11:50:02;31.40;;;15.10;;
62990;SDS011;49084;48.204;16.202;2022-12-05T11:55:42;32.15;;;14.57;;
62990;SDS011;49084;48.204;16.202;2022-12-05T12:01:26;28.67;;;14.60;;
62990;SDS011;49084;48.204;16.202;2022-12-05T12:09:25;28.73;;;13.95;;
62990;SDS011;49084;48.204;16.202;2022-12-05T12:14:59;27.63;;;13.02;;
62990;SDS011;49084;48.204;16.202;2022-12-05T12:34:07;32.22;;;13.90;;
62990;SDS011;49084;48.204;16.202;2022-12-05T12:36:57;29.58;;;13.75;;
62990;SDS011;49084;48.204;16.202;2022-12-05T12:48:25;35.75;;;15.85;;
62990;SDS011;49084;48.204;16.202;2022-12-05T12:50:54;30.67;;;14.52;;
62990;SDS011;49084;48.204;16.202;2022-12-05T13:01:34;33.63;;;14.68;;
62990;SDS011;49084;48.204;16.202;2022-12-05T13:04:21;34.90;;;14.77;;
62990;SDS011;49084;48.204;16.202;2022-12-05T13:11:58;27.73;;;12.82;;
62990;SDS011;49084;48.204;16.202;2022-12-05T13:14:29;27.85;;;13.43;;
62990;SDS011;49084;48.204;16.202;2022-12-05T13:16:56;30.00;;;13.65;;
62990;SDS011;49084;48.204;16.202;2022-12-05T13:19:31;28.77;;;13.95;;
62990;SDS011;49084;48.204;16.202;2022-12-05T13:22:07;29.27;;;13.70;;
62990;SDS011;49084;48.204;16.202;2022-12-05T13:24:33;28.35;;;14.05;;
62990;SDS011;49084;48.204;16.202;2022-12-05T13:27:07;31.63;;;14.75;;
62990;SDS011;49084;48.204;16.202;2022-12-05T13:29:40;35.50;;;15.48;;
62990;SDS011;49084;48.204;16.202;2022-12-05T13:32:28;35.42;;;13.60;;
62990;SDS011;49084;48.204;16.202;2022-12-05T13:35:29;32.63;;;14.30;;
62990;SDS011;49084;48.204;16.202;2022-12-05T13:38:46;31.73;;;13.50;;
62990;SDS011;49084;48.204;16.202;2022-12-05T13:50:16;32.03;;;13.50;;
62990;SDS011;49084;48.204;16.202;2022-12-05T14:00:49;28.63;;;12.77;;
62990;SDS011;49084;48.204;16.202;2022-12-05T14:03:16;26.05;;;12.77;;
62990;SDS011;49084;48.204;16.202;2022-12-05T14:06:02;34.25;;;14.25;;
62990;SDS011;49084;48.204;16.202;2022-12-05T14:15:51;23.63;;;10.80;;
62990;SDS011;49084;48.204;16.202;2022-12-05T14:18:39;20.52;;;10.30;;
62990;SDS011;49084;48.204;16.202;2022-12-05T14:21:21;16.23;;;9.35;;
62990;SDS011;49084;48.204;16.202;2022-12-05T14:24:06;22.92;;;10.15;;
62990;SDS011;49084;48.204;16.202;2022-12-05T14:34:37;15.20;;;7.38;;
62990;SDS011;49084;48.204;16.202;2022-12-05T14:40:02;18.88;;;8.73;;
62990;SDS011;49084;48.204;16.202;2022-12-05T14:45:31;18.50;;;8.70;;
62990;SDS011;49084;48.204;16.202;2022-12-05T14:48:00;18.80;;;8.98;;
62990;SDS011;49084;48.204;16.202;2022-12-05T14:50:47;18.83;;;9.20;;
62990;SDS011;49084;48.204;16.202;2022-12-05T14:53:21;19.05;;;9.55;;
62990;SDS011;49084;48.204;16.202;2022-12-05T14:56:34;19.10;;;10.20;;
62990;SDS011;49084;48.204;16.202;2022-12-05T14:59:19;18.52;;;9.73;;
62990;SDS011;49084;48.204;16.202;2022-12-05T15:04:31;21.58;;;10.27;;
62990;SDS011;49084;48.204;16.202;2022-12-05T15:07:09;20.20;;;10.55;;
62990;SDS011;49084;48.204;16.202;2022-12-05T15:15:18;21.13;;;10.90;;
62990;SDS011;49084;48.204;16.202;2022-12-05T15:18:21;20.48;;;10.68;;
62990;SDS011;49084;48.204;16.202;2022-12-05T15:20:59;21.40;;;10.88;;
62990;SDS011;49084;48.204;16.202;2022-12-05T15:23:46;18.65;;;9.95;;
62990;SDS011;49084;48.204;16.202;2022-12-05T15:26:32;19.85;;;11.15;;
62990;SDS011;49084;48.204;16.202;2022-12-05T15:31:31;18.55;;;9.95;;
62990;SDS011;49084;48.204;16.202;2022-12-05T15:36:49;22.88;;;10.45;;
62990;SDS011;49084;48.204;16.202;2022-12-05T15:39:26;19.75;;;10.50;;
62990;SDS011;49084;48.204;16.202;2022-12-05T15:41:52;20.42;;;10.23;;
62990;SDS011;49084;48.204;16.202;2022-12-05T15:44:20;19.92;;;10.40;;
62990;SDS011;49084;48.204;16.202;2022-12-05T15:46:51;17.90;;;10.13;;
62990;SDS011;49084;48.204;16.202;2022-12-05T15:49:21;17.30;;;10.27;;
62990;SDS011;49084;48.204;16.202;2022-12-05T15:51:51;20.55;;;10.52;;
62990;SDS011;49084;48.204;16.202;2022-12-05T15:54:29;16.95;;;9.25;;
62990;SDS011;49084;48.204;16.202;2022-12-05T15:57:00;18.63;;;9.88;;
62990;SDS011;49084;48.204;16.202;2022-12-05T16:00:12;16.95;;;8.63;;
62990;SDS011;49084;48.204;16.202;2022-12-05T16:02:28;17.05;;;8.80;;
62990;SDS011;49084;48.204;16.202;2022-12-05T16:07:54;18.08;;;8.85;;
62990;SDS011;49084;48.204;16.202;2022-12-05T16:10:20;15.68;;;8.45;;
62990;SDS011;49084;48.204;16.202;2022-12-05T16:12:48;14.77;;;8.18;;
62990;SDS011;49084;48.204;16.202;2022-12-05T16:17:47;11.43;;;7.70;;
62990;SDS011;49084;48.204;16.202;2022-12-05T16:22:54;14.75;;;7.93;;
62990;SDS011;49084;48.204;16.202;2022-12-05T16:25:26;16.73;;;8.95;;
62990;SDS011;49084;48.204;16.202;2022-12-05T16:28:19;15.00;;;9.15;;
62990;SDS011;49084;48.204;16.202;2022-12-05T16:31:18;14.60;;;8.80;;
62990;SDS011;49084;48.204;16.202;2022-12-05T16:33:41;16.17;;;9.55;;
62990;SDS011;49084;48.204;16.202;2022-12-05T16:36:07;14.45;;;8.63;;
62990;SDS011;49084;48.204;16.202;2022-12-05T16:38:34;13.98;;;8.30;;
62990;SDS011;49084;48.204;16.202;2022-12-05T16:41:02;17.23;;;10.55;;
62990;SDS011;49084;48.204;16.202;2022-12-05T16:45:57;21.90;;;11.30;;
62990;SDS011;49084;48.204;16.202;2022-12-05T16:48:37;25.02;;;13.18;;
62990;SDS011;49084;48.204;16.202;2022-12-05T16:53:42;19.30;;;9.80;;
62990;SDS011;49084;48.204;16.202;2022-12-05T16:56:34;23.10;;;12.82;;
62990;SDS011;49084;48.204;16.202;2022-12-05T16:59:03;17.35;;;10.65;;
62990;SDS011;49084;48.204;16.202;2022-12-05T17:01:30;16.05;;;9.80;;
62990;SDS011;49084;48.204;16.202;2022-12-05T17:03:57;16.00;;;9.43;;
62990;SDS011;49084;48.204;16.202;2022-12-05T17:06:24;19.85;;;10.80;;
62990;SDS011;49084;48.204;16.202;2022-12-05T17:08:51;19.67;;;10.38;;
62990;SDS011;49084;48.204;16.202;2022-12-05T17:11:19;17.27;;;9.90;;
62990;SDS011;49084;48.204;16.202;2022-12-05T17:13:54;19.27;;;10.88;;
62990;SDS011;49084;48.204;16.202;2022-12-05T17:16:21;20.48;;;10.82;;
62990;SDS011;49084;48.204;16.202;2022-12-05T17:18:47;18.13;;;10.27;;
62990;SDS011;49084;48.204;16.202;2022-12-05T17:21:14;17.50;;;10.52;;
62990;SDS011;49084;48.204;16.202;2022-12-05T17:23:43;20.63;;;10.18;;
62990;SDS011;49084;48.204;16.202;2022-12-05T17:26:13;18.75;;;9.85;;
62990;SDS011;49084;48.204;16.202;2022-12-05T17:28:39;13.77;;;8.48;;
62990;SDS011;49084;48.204;16.202;2022-12-05T17:31:07;13.70;;;9.02;;
62990;SDS011;49084;48.204;16.202;2022-12-05T17:33:48;17.50;;;9.65;;
62990;SDS011;49084;48.204;16.202;2022-12-05T17:36:15;15.38;;;8.80;;
62990;SDS011;49084;48.204;16.202;2022-12-05T17:38:42;14.63;;;8.88;;
62990;SDS011;49084;48.204;16.202;2022-12-05T17:41:15;16.13;;;9.68;;
62990;SDS011;49084;48.204;16.202;2022-12-05T17:43:43;14.60;;;7.55;;
62990;SDS011;49084;48.204;16.202;2022-12-05T17:46:11;13.55;;;8.20;;
62990;SDS011;49084;48.204;16.202;2022-12-05T17:48:40;16.55;;;9.20;;
62990;SDS011;49084;48.204;16.202;2022-12-05T17:51:06;17.85;;;9.18;;
62990;SDS011;49084;48.204;16.202;2022-12-05T17:53:37;23.63;;;10.02;;
62990;SDS011;49084;48.204;16.202;2022-12-05T17:56:03;32.70;;;17.17;;
62990;SDS011;49084;48.204;16.202;2022-12-05T17:58:30;85.75;;;36.50;;
62990;SDS011;49084;48.204;16.202;2022-12-05T18:00:56;83.57;;;36.08;;
62990;SDS011;49084;48.204;16.202;2022-12-05T18:03:22;97.05;;;42.97;;
62990;SDS011;49084;48.204;16.202;2022-12-05T18:05:48;59.72;;;27.35;;
62990;SDS011;49084;48.204;16.202;2022-12-05T18:08:14;65.78;;;28.08;;
62990;SDS011;49084;48.204;16.202;2022-12-05T18:10:41;69.10;;;30.40;;
62990;SDS011;49084;48.204;16.202;2022-12-05T18:13:10;34.42;;;16.63;;
62990;SDS011;49084;48.204;16.202;2022-12-05T18:15:37;29.58;;;14.65;;
62990;SDS011;49084;48.204;16.202;2022-12-05T18:18:03;27.65;;;15.50;;
62990;SDS011;49084;48.204;16.202;2022-12-05T18:20:31;34.70;;;17.80;;
62990;SDS011;49084;48.204;16.202;2022-12-05T18:22:57;35.03;;;18.25;;